createdAt,value
2018-05-27T00:02:00.115Z,16.20
2018-05-27T00:06:03.618Z,20.33
2018-05-27T00:10:07.111Z,17.90
2018-05-27T00:14:09.936Z,17.47
2018-05-27T00:18:13.414Z,16.77
2018-05-27T00:22:17.268Z,16.37
2018-05-27T00:26:20.758Z,22.47
2018-05-27T00:30:23.638Z,17.70
2018-05-27T00:34:27.212Z,16.27
2018-05-27T00:38:30.777Z,21.40
2018-05-27T00:42:33.468Z,15.90
2018-05-27T00:46:36.263Z,18.50
2018-05-27T00:50:39.750Z,18.50
2018-05-27T00:54:42.541Z,14.40
2018-05-27T00:58:45.408Z,16.47
2018-05-27T01:02:48.942Z,16.33
2018-05-27T01:06:52.491Z,16.57
2018-05-27T01:10:55.234Z,16.83
2018-05-27T01:14:58.040Z,15.30
2018-05-27T01:19:00.822Z,17.00
2018-05-27T01:23:03.638Z,14.03
2018-05-27T01:27:07.147Z,13.97
2018-05-27T01:31:09.912Z,17.63
2018-05-27T01:35:12.649Z,17.47
2018-05-27T01:39:16.180Z,18.00
2018-05-27T01:43:18.933Z,18.07
2018-05-27T01:47:21.688Z,17.23
2018-05-27T01:51:24.417Z,18.40
2018-05-27T01:55:27.161Z,15.53
2018-05-27T01:59:29.909Z,17.30
2018-05-27T02:03:32.653Z,16.87
2018-05-27T02:07:36.137Z,18.37
2018-05-27T02:11:38.903Z,17.60
2018-05-27T02:15:41.742Z,18.17
2018-05-27T02:19:44.472Z,18.07
2018-05-27T02:23:47.445Z,17.93
2018-05-27T02:27:50.474Z,16.80
2018-05-27T02:31:53.209Z,17.33
2018-05-27T02:35:56.159Z,17.33
2018-05-27T02:39:59.662Z,17.30
2018-05-27T02:44:03.432Z,17.80
2018-05-27T02:48:06.176Z,20.63
2018-05-27T02:52:10.113Z,20.00
2018-05-27T02:56:13.827Z,23.20
2018-05-27T03:00:16.543Z,25.00
2018-05-27T03:04:20.124Z,20.60
2018-05-27T03:08:23.252Z,20.50
2018-05-27T03:12:26.822Z,18.87
2018-05-27T03:16:29.790Z,21.50
2018-05-27T03:20:32.525Z,19.60
2018-05-27T03:24:35.302Z,19.53
2018-05-27T03:28:38.030Z,20.57
2018-05-27T03:32:40.793Z,19.93
2018-05-27T03:36:43.582Z,18.37
2018-05-27T03:40:46.374Z,17.23
2018-05-27T03:44:49.231Z,17.70
2018-05-27T03:48:52.045Z,16.00
2018-05-27T03:52:54.748Z,18.10
2018-05-27T03:56:57.640Z,16.40
2018-05-27T04:01:01.126Z,17.23
2018-05-27T04:05:15.875Z,16.77
2018-05-27T04:09:18.585Z,16.80
2018-05-27T04:13:21.381Z,17.27
2018-05-27T04:17:24.104Z,16.07
2018-05-27T04:21:26.960Z,15.47
2018-05-27T04:25:29.684Z,15.60
2018-05-27T04:29:32.433Z,16.80
2018-05-27T04:33:35.165Z,16.00
2018-05-27T04:37:37.953Z,17.63
2018-05-27T04:41:40.689Z,16.27
2018-05-27T04:45:43.429Z,14.40
2018-05-27T04:49:46.197Z,15.20
2018-05-27T04:53:49.688Z,15.50
2018-05-27T04:57:52.408Z,14.37
2018-05-27T05:01:55.193Z,20.10
2018-05-27T05:05:58.056Z,13.33
2018-05-27T05:10:00.768Z,13.93
2018-05-27T05:14:03.615Z,15.03
2018-05-27T05:18:06.417Z,14.03
2018-05-27T05:22:09.154Z,13.73
2018-05-27T05:26:12.114Z,12.87
2018-05-27T05:30:14.855Z,12.50
2018-05-27T05:34:17.815Z,13.87
2018-05-27T05:38:20.741Z,11.40
2018-05-27T05:42:23.587Z,10.30
2018-05-27T05:46:26.361Z,9.83
2018-05-27T05:50:29.350Z,11.10
2018-05-27T05:54:32.070Z,11.03
2018-05-27T05:58:34.861Z,10.60
2018-05-27T06:02:37.583Z,10.70
2018-05-27T06:06:42.284Z,9.30
2018-05-27T06:10:45.030Z,10.70
2018-05-27T06:14:48.690Z,10.53
2018-05-27T06:18:51.411Z,9.53
2018-05-27T06:22:54.137Z,10.00
2018-05-27T06:26:57.818Z,9.57
2018-05-27T06:31:00.528Z,9.77
2018-05-27T06:35:03.350Z,8.97
2018-05-27T06:39:07.118Z,9.07
2018-05-27T06:43:10.851Z,8.40
2018-05-27T06:47:13.598Z,9.40
2018-05-27T06:51:16.384Z,10.50
2018-05-27T06:55:19.213Z,8.87
2018-05-27T06:59:21.920Z,8.90
2018-05-27T07:03:24.653Z,8.55
2018-05-27T07:07:27.453Z,8.27
2018-05-27T07:11:30.176Z,8.90
2018-05-27T07:15:32.987Z,8.03
2018-05-27T07:19:35.772Z,7.03
2018-05-27T07:23:39.238Z,7.13
2018-05-27T07:27:41.957Z,8.33
2018-05-27T07:31:44.688Z,7.03
2018-05-27T07:35:47.386Z,8.83
2018-05-27T07:39:50.128Z,8.40
2018-05-27T07:43:52.912Z,7.47
2018-05-27T07:47:55.654Z,7.30
2018-05-27T07:51:58.548Z,8.00
2018-05-27T07:56:01.298Z,7.30
2018-05-27T08:00:05.205Z,7.70
2018-05-27T08:04:08.840Z,7.80
2018-05-27T08:12:41.413Z,7.00
2018-05-27T08:16:44.537Z,8.53
2018-05-27T08:20:48.431Z,6.40
2018-05-27T08:24:51.308Z,7.13
2018-05-27T08:28:54.169Z,6.70
2018-05-27T08:32:58.052Z,8.30
2018-05-27T08:37:00.909Z,7.67
2018-05-27T08:41:04.692Z,6.80
2018-05-27T08:45:08.993Z,6.60
2018-05-27T08:49:11.720Z,6.33
2018-05-27T08:53:14.501Z,5.50
2018-05-27T08:57:17.240Z,6.33
2018-05-27T09:01:20.829Z,7.00
2018-05-27T09:05:23.529Z,5.43
2018-05-27T09:09:26.263Z,6.67
2018-05-27T09:13:29.784Z,5.80
2018-05-27T09:17:32.590Z,5.33
2018-05-27T09:21:35.464Z,5.03
2018-05-27T09:25:38.950Z,5.57
2018-05-27T09:29:41.662Z,6.07
2018-05-27T09:33:45.504Z,4.87
2018-05-27T09:37:48.224Z,5.27
2018-05-27T09:41:51.057Z,5.27
2018-05-27T09:45:53.798Z,6.30
2018-05-27T09:49:57.313Z,5.37
2018-05-27T09:54:00.857Z,5.50
2018-05-27T09:58:03.645Z,5.87
2018-05-27T10:02:07.240Z,5.47
2018-05-27T10:06:11.099Z,5.27
2018-05-27T10:10:15.129Z,5.43
2018-05-27T10:14:18.150Z,6.97
2018-05-27T10:18:21.150Z,5.60
2018-05-27T10:22:23.938Z,4.60
2018-05-27T10:26:26.761Z,4.30
2018-05-27T10:30:29.678Z,4.30
2018-05-27T10:34:32.644Z,5.37
2018-05-27T10:38:35.402Z,5.50
2018-05-27T10:42:38.116Z,5.23
2018-05-27T10:46:40.906Z,5.40
2018-05-27T10:50:44.138Z,4.97
2018-05-27T10:54:46.890Z,5.37
2018-05-27T10:58:50.373Z,5.50
2018-05-27T11:02:53.090Z,5.00
2018-05-27T11:06:56.926Z,5.50
2018-05-27T11:11:00.883Z,4.80
2018-05-27T11:15:04.531Z,4.87
2018-05-27T11:19:07.275Z,4.90
2018-05-27T11:23:10.157Z,4.87
2018-05-27T11:27:13.656Z,5.73
2018-05-27T11:31:16.732Z,5.13
2018-05-27T11:35:20.371Z,5.27
2018-05-27T11:39:23.207Z,4.50
2018-05-27T11:43:26.952Z,5.20
2018-05-27T11:47:30.875Z,4.57
2018-05-27T11:51:33.633Z,6.00
2018-05-27T11:55:37.432Z,5.67
2018-05-27T11:59:40.167Z,5.20
2018-05-27T12:03:43.738Z,4.30
2018-05-27T12:07:46.677Z,4.60
2018-05-27T12:11:50.260Z,4.57
2018-05-27T12:15:53.105Z,4.87
2018-05-27T12:19:55.838Z,5.00
2018-05-27T12:23:59.509Z,4.40
2018-05-27T12:28:03.076Z,4.60
2018-05-27T12:32:05.800Z,3.90
2018-05-27T12:36:08.516Z,4.40
2018-05-27T12:40:12.153Z,4.27
2018-05-27T12:44:14.884Z,4.43
2018-05-27T12:48:17.841Z,4.07
2018-05-27T12:52:20.549Z,4.17
2018-05-27T12:56:23.375Z,4.63
2018-05-27T13:00:26.326Z,4.20
2018-05-27T13:04:31.037Z,4.57
2018-05-27T13:08:34.642Z,4.40
2018-05-27T13:12:37.361Z,4.03
2018-05-27T13:16:40.178Z,4.50
2018-05-27T13:20:42.897Z,3.90
2018-05-27T13:24:45.613Z,4.13
2018-05-27T13:28:48.409Z,4.30
2018-05-27T13:32:51.217Z,4.33
2018-05-27T13:36:54.756Z,4.27
2018-05-27T13:40:57.495Z,4.87
2018-05-27T13:45:00.246Z,5.33
2018-05-27T13:49:03.180Z,4.97
2018-05-27T13:53:06.657Z,4.97
2018-05-27T13:57:09.375Z,6.63
2018-05-27T14:01:12.157Z,6.63
2018-05-27T14:05:14.898Z,6.43
2018-05-27T14:09:18.462Z,5.90
2018-05-27T14:13:21.175Z,8.80
2018-05-27T14:17:23.905Z,5.70
2018-05-27T14:21:27.619Z,6.47
2018-05-27T14:25:31.110Z,6.77
2018-05-27T14:29:34.026Z,6.93
2018-05-27T14:33:37.557Z,6.50
2018-05-27T14:37:41.043Z,6.80
2018-05-27T14:41:43.876Z,6.80
2018-05-27T14:45:46.656Z,7.00
2018-05-27T14:49:51.349Z,8.53
2018-05-27T14:53:54.060Z,6.53
2018-05-27T14:57:56.818Z,8.33
2018-05-27T15:01:59.661Z,7.60
2018-05-27T15:06:02.433Z,6.73
2018-05-27T15:10:05.145Z,6.90
2018-05-27T15:14:07.899Z,6.20
2018-05-27T15:18:10.626Z,7.20
2018-05-27T15:22:13.395Z,8.80
2018-05-27T15:26:16.112Z,6.63
2018-05-27T15:30:18.909Z,8.20
2018-05-27T15:34:22.483Z,7.87
2018-05-27T15:38:27.240Z,7.60
2018-05-27T15:42:31.054Z,6.90
2018-05-27T15:46:34.673Z,7.90
2018-05-27T15:50:37.446Z,11.70
2018-05-27T15:54:40.594Z,7.87
2018-05-27T15:58:43.473Z,9.27
2018-05-27T16:02:47.255Z,10.00
2018-05-27T16:06:50.038Z,8.73
2018-05-27T16:10:52.733Z,8.47
2018-05-27T16:14:56.606Z,8.03
2018-05-27T16:18:59.558Z,8.83
2018-05-27T16:23:02.612Z,8.80
2018-05-27T16:27:05.575Z,8.30
2018-05-27T16:31:09.183Z,9.53
2018-05-27T16:35:14.280Z,9.27
2018-05-27T16:39:17.078Z,9.17
2018-05-27T16:43:20.540Z,8.80
2018-05-27T16:47:23.285Z,9.50
2018-05-27T16:51:26.889Z,9.07
2018-05-27T16:55:29.767Z,9.57
2018-05-27T16:59:32.503Z,10.50
2018-05-27T17:03:36.186Z,9.27
2018-05-27T17:07:39.135Z,10.57
2018-05-27T17:11:42.805Z,10.03
2018-05-27T17:15:45.584Z,8.50
2018-05-27T17:19:51.072Z,9.70
2018-05-27T17:23:54.004Z,9.40
2018-05-27T17:27:57.972Z,7.50
2018-05-27T17:32:00.714Z,9.43
2018-05-27T17:36:05.568Z,10.30
2018-05-27T17:40:08.583Z,9.17
2018-05-27T17:44:11.278Z,10.87
2018-05-27T17:48:14.250Z,12.30
2018-05-27T17:52:16.984Z,9.20
2018-05-27T17:56:19.956Z,11.37
2018-05-27T18:00:23.451Z,11.53
2018-05-27T18:04:26.293Z,9.90
2018-05-27T18:08:29.277Z,11.00
2018-05-27T18:12:32.767Z,10.23
2018-05-27T18:16:35.648Z,13.93
2018-05-27T18:20:39.384Z,10.57
2018-05-27T18:24:42.211Z,9.50
2018-05-27T18:28:45.878Z,10.23
2018-05-27T18:32:48.751Z,11.37
2018-05-27T18:36:51.555Z,10.00
2018-05-27T18:40:54.507Z,9.87
2018-05-27T18:44:57.567Z,11.83
2018-05-27T18:49:00.540Z,11.07
2018-05-27T18:53:04.119Z,10.23
2018-05-27T18:57:06.917Z,9.87
2018-05-27T19:01:09.641Z,11.53
2018-05-27T19:05:13.189Z,10.13
2018-05-27T19:09:16.795Z,10.17
2018-05-27T19:13:19.700Z,9.73
2018-05-27T19:17:22.742Z,9.57
2018-05-27T19:21:25.558Z,11.60
2018-05-27T19:25:28.505Z,10.43
2018-05-27T19:29:31.263Z,16.77
2018-05-27T19:33:34.035Z,12.43
2018-05-27T19:37:37.625Z,9.43
2018-05-27T19:41:40.878Z,9.47
2018-05-27T19:45:43.912Z,10.53
2018-05-27T19:49:47.379Z,10.83
2018-05-27T19:53:50.612Z,13.00
2018-05-27T19:57:53.580Z,10.77
2018-05-27T20:01:57.254Z,10.47
2018-05-27T20:06:00.741Z,10.60
2018-05-27T20:10:03.533Z,10.97
2018-05-27T20:14:06.292Z,9.70
2018-05-27T20:18:09.162Z,10.63
2018-05-27T20:22:12.733Z,10.33
2018-05-27T20:26:15.562Z,11.77
2018-05-27T20:30:18.370Z,10.23
2018-05-27T20:34:21.913Z,10.33
2018-05-27T20:38:24.707Z,9.57
2018-05-27T20:42:27.616Z,9.33
2018-05-27T20:46:30.340Z,9.73
2018-05-27T20:50:33.093Z,10.70
2018-05-27T20:54:35.891Z,9.97
2018-05-27T20:58:38.650Z,9.90
2018-05-27T21:02:41.468Z,9.30
2018-05-27T21:06:44.963Z,9.53
2018-05-27T21:10:47.888Z,10.03
2018-05-27T21:14:51.459Z,8.83
2018-05-27T21:18:54.377Z,8.50
2018-05-27T21:22:57.085Z,10.80
2018-05-27T21:26:59.858Z,8.70
2018-05-27T21:31:02.585Z,7.80
2018-05-27T21:35:05.340Z,8.20
2018-05-27T21:39:08.078Z,12.37
2018-05-27T21:43:10.808Z,7.80
2018-05-27T21:47:13.504Z,9.13
2018-05-27T21:51:16.303Z,8.10
2018-05-27T21:55:19.022Z,9.20
2018-05-27T21:59:21.733Z,8.37
2018-05-27T22:03:24.460Z,8.10
2018-05-27T22:07:27.253Z,9.60
2018-05-27T22:11:29.962Z,7.97
2018-05-27T22:15:33.538Z,7.07
2018-05-27T22:19:36.341Z,5.20
2018-05-27T22:23:39.067Z,8.60
2018-05-27T22:27:41.797Z,8.33
2018-05-27T22:31:44.574Z,6.50
2018-05-27T22:35:48.263Z,5.30
2018-05-27T22:39:52.507Z,4.57
2018-05-27T22:43:55.711Z,4.77
2018-05-27T22:47:58.453Z,4.60
2018-05-27T22:52:01.181Z,6.10
2018-05-27T22:56:04.007Z,4.63
2018-05-27T23:00:06.754Z,6.13
2018-05-27T23:04:09.612Z,5.77
2018-05-27T23:08:13.374Z,5.20
2018-05-27T23:12:16.173Z,4.20
2018-05-27T23:16:18.937Z,6.33
2018-05-27T23:20:22.497Z,4.97
2018-05-27T23:24:25.211Z,7.07
2018-05-27T23:28:28.042Z,6.43
2018-05-27T23:32:31.524Z,6.10
2018-05-27T23:36:34.552Z,6.20
2018-05-27T23:40:37.313Z,9.20
2018-05-27T23:44:40.249Z,6.33
2018-05-27T23:48:42.983Z,5.47
2018-05-27T23:52:45.819Z,5.40
2018-05-27T23:56:48.553Z,9.90
